Time;durP1;ratioP1;P1;durP2;ratioP2;P2;SDS_P1;SDS_P2;PMS_P1;PMS_P2;Temp;Humidity;BMP_temperature;BMP_pressure;BME280_temperature;BME280_humidity;BME280_pressure;Samples;Min_cycle;Max_cycle;Signal;HPM_P1;HPM_P2
2021/07/01 00:00:49;;;;;;;;;;;13.60;99.90;;;;;;6100371;23;19981;-77
2021/07/01 00:03:15;;;;;;;;;;;13.60;99.90;;;;;;6101567;23;20453;-78
2021/07/01 00:05:42;;;;;;;;;;;13.60;99.90;;;;;;6126520;23;20004;-78
2021/07/01 00:08:08;;;;;;;;;;;13.60;99.90;;;;;;6100927;23;19985;-78
2021/07/01 00:10:33;;;;;;;;;;;13.60;99.90;;;;;;6101431;23;19978;-78
2021/07/01 00:12:59;;;;;;;;;;;13.60;99.90;;;;;;6127884;23;20025;-78
2021/07/01 00:15:26;;;;;;;;;;;13.60;99.90;;;;;;6101391;23;19994;-78
2021/07/01 00:17:52;;;;;;;;;;;13.60;99.90;;;;;;6101128;23;20060;-77
2021/07/01 00:20:18;;;;;;;;;;;13.60;99.90;;;;;;6099852;23;19978;-77
2021/07/01 00:22:44;;;;;;;;;;;13.60;99.90;;;;;;6125792;23;20413;-78
2021/07/01 00:25:10;;;;;;;;;;;13.60;99.90;;;;;;6125896;23;20508;-78
2021/07/01 00:27:36;;;;;;;;;;;13.70;99.90;;;;;;6125412;23;20052;-78
2021/07/01 00:30:03;;;;;;;;;;;13.60;99.90;;;;;;6099117;23;19977;-77
2021/07/01 00:32:28;;;;;;;;;;;13.70;99.90;;;;;;6098394;23;19978;-77
2021/07/01 00:34:53;;;;;;;;;;;13.70;99.90;;;;;;6124155;23;20076;-78
2021/07/01 00:37:19;;;;;;;;;;;13.60;99.90;;;;;;6097880;23;19986;-78
2021/07/01 00:39:44;;;;;;;;;;;13.70;99.90;;;;;;6124666;23;19974;-78
2021/07/01 00:42:10;;;;;;;;;;;13.70;99.90;;;;;;6123784;23;20420;-78
2021/07/01 00:44:35;;;;;;;;;;;13.70;99.90;;;;;;6136250;23;19998;-77
2021/07/01 00:47:01;;;;;;;;;;;13.80;99.90;;;;;;6148292;23;19986;-77
2021/07/01 00:49:26;;;;;;;;;;;13.80;99.90;;;;;;6121835;23;19978;-77
2021/07/01 00:51:52;;;;;;;;;;;13.80;99.90;;;;;;6120586;23;19998;-77
2021/07/01 00:54:18;;;;;;;;;;;13.80;99.90;;;;;;6127800;23;20434;-77
2021/07/01 00:56:43;;;;;;;;;;;13.80;99.90;;;;;;6125236;23;19981;-77
2021/07/01 00:59:09;;;;;;;;;;;13.70;99.90;;;;;;6098857;23;19977;-78
2021/07/01 01:01:35;;;;;;;;;;;13.70;99.90;;;;;;6124655;23;20025;-77
2021/07/01 01:04:01;;;;;;;;;;;13.70;99.90;;;;;;6099039;23;20011;-78
2021/07/01 01:06:26;;;;;;;;;;;13.60;99.90;;;;;;6099539;23;20318;-77
2021/07/01 01:08:52;;;;;;;;;;;13.70;99.90;;;;;;6124782;23;19974;-77
2021/07/01 01:11:17;;;;;;;;;;;13.60;99.90;;;;;;6129738;23;19974;-78
2021/07/01 01:13:45;;;;;;;;;;;13.60;99.90;;;;;;6118776;23;19978;-77
2021/07/01 01:16:11;;;;;;;;;;;13.50;99.90;;;;;;6126785;23;19988;-77
2021/07/01 01:18:36;;;;;;;;;;;13.50;99.90;;;;;;6099051;23;20394;-78
2021/07/01 01:21:02;;;;;;;;;;;13.50;99.90;;;;;;6125191;23;19981;-77
2021/07/01 01:23:28;;;;;;;;;;;13.40;99.90;;;;;;6099801;23;19978;-77
2021/07/01 01:25:55;;;;;;;;;;;13.40;99.90;;;;;;6125344;23;20004;-78
2021/07/01 01:28:21;;;;;;;;;;;13.40;99.90;;;;;;6099698;23;20064;-78
2021/07/01 01:30:47;;;;;;;;;;;13.40;99.90;;;;;;6125470;23;19993;-77
2021/07/01 01:33:12;;;;;;;;;;;13.40;99.90;;;;;;6099480;23;20321;-78
2021/07/01 01:35:39;;;;;;;;;;;13.40;99.90;;;;;;6125016;23;20405;-78
2021/07/01 01:38:07;;;;;;;;;;;13.40;99.90;;;;;;6124904;23;19981;-77
2021/07/01 01:40:35;;;;;;;;;;;13.40;99.90;;;;;;6125119;23;19974;-77
2021/07/01 01:43:00;;;;;;;;;;;13.40;99.90;;;;;;6124376;23;19977;-77
2021/07/01 01:45:26;;;;;;;;;;;13.40;99.90;;;;;;6123792;23;20001;-77
2021/07/01 01:47:51;;;;;;;;;;;13.40;99.90;;;;;;6099639;23;20406;-78
2021/07/01 01:50:18;;;;;;;;;;;13.30;99.90;;;;;;6099551;23;19978;-77
2021/07/01 01:52:43;;;;;;;;;;;13.30;99.90;;;;;;6126270;23;20000;-77
2021/07/01 01:55:12;;;;;;;;;;;13.30;99.90;;;;;;6094624;23;20418;-78
2021/07/01 01:57:37;;;;;;;;;;;13.20;99.90;;;;;;6096010;23;20049;-77
2021/07/01 02:00:03;;;;;;;;;;;13.20;99.90;;;;;;6096039;23;20072;-78
2021/07/01 02:02:29;;;;;;;;;;;13.20;99.90;;;;;;6095699;23;20049;-77
2021/07/01 02:04:54;;;;;;;;;;;13.20;99.90;;;;;;6096065;23;20041;-77
2021/07/01 02:07:20;;;;;;;;;;;13.20;99.90;;;;;;6095159;23;19982;-78
2021/07/01 02:09:45;;;;;;;;;;;13.20;99.90;;;;;;6095455;23;19978;-78
2021/07/01 02:12:11;;;;;;;;;;;13.10;99.90;;;;;;6095365;23;20416;-78
2021/07/01 02:14:36;;;;;;;;;;;13.10;99.90;;;;;;6096301;23;19990;-77
2021/07/01 02:17:03;;;;;;;;;;;13.10;99.90;;;;;;6095134;23;19979;-78
2021/07/01 02:19:28;;;;;;;;;;;13.10;99.90;;;;;;6095104;23;19986;-77
2021/07/01 02:21:54;;;;;;;;;;;13.10;99.90;;;;;;6096218;23;19974;-78
2021/07/01 02:24:19;;;;;;;;;;;13.10;99.90;;;;;;6094371;23;20002;-78
2021/07/01 02:26:45;;;;;;;;;;;13.00;99.90;;;;;;6094295;23;19997;-77
2021/07/01 02:29:10;;;;;;;;;;;13.00;99.90;;;;;;6094209;23;20035;-78
2021/07/01 02:31:36;;;;;;;;;;;13.00;99.90;;;;;;6096435;23;20012;-77
2021/07/01 02:34:01;;;;;;;;;;;13.00;99.90;;;;;;6096253;23;20001;-76
2021/07/01 02:36:26;;;;;;;;;;;13.00;99.90;;;;;;6096360;23;19979;-78
2021/07/01 02:38:52;;;;;;;;;;;13.00;99.90;;;;;;6096230;23;19974;-77
2021/07/01 02:41:18;;;;;;;;;;;13.00;99.90;;;;;;6095945;23;20390;-77
2021/07/01 02:43:43;;;;;;;;;;;13.00;99.90;;;;;;6095154;23;20043;-77
2021/07/01 02:46:09;;;;;;;;;;;13.00;99.90;;;;;;6094160;23;19998;-77
2021/07/01 02:48:34;;;;;;;;;;;12.90;99.90;;;;;;6118901;23;19985;-77
2021/07/01 02:50:59;;;;;;;;;;;12.90;99.90;;;;;;6096028;23;19978;-77
2021/07/01 02:53:25;;;;;;;;;;;12.90;99.90;;;;;;6094759;23;19977;-78
2021/07/01 02:55:50;;;;;;;;;;;13.00;99.90;;;;;;6123341;23;20017;-77
2021/07/01 02:58:16;;;;;;;;;;;13.00;99.90;;;;;;6100052;23;20098;-77
2021/07/01 03:00:41;;;;;;;;;;;13.10;99.90;;;;;;6124949;23;19974;-77
2021/07/01 03:03:07;;;;;;;;;;;13.10;99.90;;;;;;6099929;23;19978;-77
2021/07/01 03:05:32;;;;;;;;;;;13.10;99.90;;;;;;6124696;23;19998;-78
2021/07/01 03:07:57;;;;;;;;;;;13.20;99.90;;;;;;6099009;23;19984;-77
2021/07/01 03:10:23;;;;;;;;;;;13.20;99.90;;;;;;6099642;23;19982;-77
2021/07/01 03:12:49;;;;;;;;;;;13.20;99.90;;;;;;6100044;23;19985;-77
2021/07/01 03:15:14;;;;;;;;;;;13.20;99.90;;;;;;6125053;23;20020;-77
2021/07/01 03:17:40;;;;;;;;;;;13.30;99.90;;;;;;6126152;23;19977;-77
2021/07/01 03:20:05;;;;;;;;;;;13.30;99.90;;;;;;6126942;23;20012;-77
2021/07/01 03:22:31;;;;;;;;;;;13.30;99.90;;;;;;6101920;23;19985;-77
2021/07/01 03:24:56;;;;;;;;;;;13.30;99.90;;;;;;6127128;23;20349;-77
2021/07/01 03:27:22;;;;;;;;;;;13.30;99.90;;;;;;6127333;23;20056;-77
2021/07/01 03:29:47;;;;;;;;;;;13.30;99.90;;;;;;6127070;23;20029;-78
2021/07/01 03:32:13;;;;;;;;;;;13.40;99.90;;;;;;6125791;23;20461;-77
2021/07/01 03:34:38;;;;;;;;;;;13.40;99.90;;;;;;6099631;23;20049;-78
2021/07/01 03:37:04;;;;;;;;;;;13.40;99.90;;;;;;6125461;23;20420;-77
2021/07/01 03:39:29;;;;;;;;;;;13.40;99.90;;;;;;6126183;23;19978;-77
2021/07/01 03:41:55;;;;;;;;;;;13.40;99.90;;;;;;6126476;23;19974;-78
2021/07/01 03:44:20;;;;;;;;;;;13.50;99.90;;;;;;6100184;23;20037;-77
2021/07/01 03:46:46;;;;;;;;;;;13.50;99.90;;;;;;6125563;23;20076;-77
2021/07/01 03:49:12;;;;;;;;;;;13.50;99.90;;;;;;6099583;23;20456;-77
2021/07/01 03:51:38;;;;;;;;;;;13.50;99.90;;;;;;6099044;23;20103;-78
2021/07/01 03:54:04;;;;;;;;;;;13.50;99.90;;;;;;6128847;23;20013;-76
2021/07/01 03:56:40;;;;;;;;;;;13.50;99.90;;;;;;6127444;23;20392;-77
2021/07/01 03:59:07;;;;;;;;;;;13.50;99.90;;;;;;6127494;23;20030;-76
2021/07/01 04:01:33;;;;;;;;;;;13.60;99.90;;;;;;6127643;23;20024;-77
2021/07/01 04:03:58;;;;;;;;;;;13.60;99.90;;;;;;6127614;23;19982;-76
2021/07/01 04:06:24;;;;;;;;;;;13.70;99.90;;;;;;6151910;23;20008;-77
2021/07/01 04:08:49;;;;;;;;;;;13.70;99.90;;;;;;6152192;23;19984;-77
2021/07/01 04:11:15;;;;;;;;;;;13.80;99.90;;;;;;6151807;23;19977;-77
2021/07/01 04:13:40;;;;;;;;;;;13.80;99.90;;;;;;6154160;23;20397;-78
2021/07/01 04:16:06;;;;;;;;;;;13.80;99.90;;;;;;6153682;23;19989;-77
2021/07/01 04:18:31;;;;;;;;;;;13.80;99.90;;;;;;6152494;23;20009;-77
2021/07/01 04:20:57;;;;;;;;;;;13.80;99.90;;;;;;6127106;23;19977;-77
2021/07/01 04:23:22;;;;;;;;;;;13.90;99.90;;;;;;6151777;23;19977;-77
2021/07/01 04:25:50;;;;;;;;;;;13.90;99.90;;;;;;6126927;23;20001;-77
2021/07/01 04:28:16;;;;;;;;;;;13.90;99.90;;;;;;6151353;23;19978;-77
2021/07/01 04:30:42;;;;;;;;;;;13.90;99.90;;;;;;6153770;23;20048;-76
2021/07/01 04:33:07;;;;;;;;;;;13.90;99.90;;;;;;6151866;23;20359;-77
2021/07/01 04:35:33;;;;;;;;;;;13.90;99.90;;;;;;6151487;23;20113;-77
2021/07/01 04:37:58;;;;;;;;;;;13.90;99.90;;;;;;6151534;23;20108;-77
2021/07/01 04:40:24;;;;;;;;;;;13.90;99.90;;;;;;6151800;23;19981;-77
2021/07/01 04:42:49;;;;;;;;;;;14.00;99.90;;;;;;6151902;23;20029;-77
2021/07/01 04:45:15;;;;;;;;;;;14.00;99.90;;;;;;6127104;23;20001;-77
2021/07/01 04:47:40;;;;;;;;;;;14.00;99.90;;;;;;6152775;23;20068;-77
2021/07/01 04:50:06;;;;;;;;;;;14.00;99.90;;;;;;6151920;23;19977;-78
2021/07/01 04:52:31;;;;;;;;;;;14.00;99.90;;;;;;6153981;23;20092;-77
2021/07/01 04:54:57;;;;;;;;;;;14.00;99.90;;;;;;6154739;23;20001;-77
2021/07/01 04:57:22;;;;;;;;;;;14.10;99.90;;;;;;6153301;23;20413;-77
2021/07/01 04:59:48;;;;;;;;;;;14.10;99.90;;;;;;6153256;23;20004;-77
2021/07/01 05:02:13;;;;;;;;;;;14.10;99.90;;;;;;6135958;23;19988;-77
2021/07/01 05:04:39;;;;;;;;;;;14.10;99.90;;;;;;6162709;23;19989;-77
2021/07/01 05:07:04;;;;;;;;;;;14.10;99.90;;;;;;6166714;23;19981;-77
2021/07/01 05:09:30;;;;;;;;;;;14.20;99.90;;;;;;6135496;23;19984;-77
2021/07/01 05:11:55;;;;;;;;;;;14.30;99.90;;;;;;6162053;23;19985;-77
2021/07/01 05:14:21;;;;;;;;;;;14.30;99.90;;;;;;6130040;23;19993;-77
2021/07/01 05:16:47;;;;;;;;;;;14.50;99.90;;;;;;6151666;23;20016;-77
2021/07/01 05:19:13;;;;;;;;;;;14.50;99.90;;;;;;6153065;23;19974;-77
2021/07/01 05:21:38;;;;;;;;;;;14.50;99.90;;;;;;6152234;23;20056;-77
2021/07/01 05:24:04;;;;;;;;;;;14.60;99.90;;;;;;6151443;23;19993;-77
2021/07/01 05:26:30;;;;;;;;;;;14.60;99.90;;;;;;6151628;23;20008;-77
2021/07/01 05:28:55;;;;;;;;;;;14.50;99.90;;;;;;6151662;23;19992;-77
2021/07/01 05:31:21;;;;;;;;;;;14.50;99.90;;;;;;6151425;23;19978;-77
2021/07/01 05:33:46;;;;;;;;;;;14.60;99.90;;;;;;6152768;23;19973;-76
2021/07/01 05:36:11;;;;;;;;;;;14.60;99.90;;;;;;6151073;23;19994;-77
2021/07/01 05:38:37;;;;;;;;;;;14.70;99.90;;;;;;6151596;23;20060;-76
2021/07/01 05:41:02;;;;;;;;;;;14.70;99.90;;;;;;6152851;23;19973;-76
2021/07/01 05:43:28;;;;;;;;;;;14.70;99.90;;;;;;6151706;23;19981;-77
2021/07/01 05:45:54;;;;;;;;;;;14.80;99.90;;;;;;6126813;23;20092;-77
2021/07/01 05:48:20;;;;;;;;;;;14.80;99.90;;;;;;6153102;23;20171;-77
2021/07/01 05:50:58;;;;;;;;;;;14.80;99.90;;;;;;6127002;23;19977;-77
2021/07/01 05:53:28;;;;;;;;;;;14.80;99.90;;;;;;6153361;23;19977;-77
2021/07/01 05:55:54;;;;;;;;;;;14.90;99.90;;;;;;6151484;23;20009;-77
2021/07/01 05:58:20;;;;;;;;;;;14.90;99.90;;;;;;6153700;23;20345;-77
2021/07/01 06:00:45;;;;;;;;;;;15.00;99.90;;;;;;6153683;23;20431;-78
2021/07/01 06:03:11;;;;;;;;;;;15.00;99.90;;;;;;6154442;23;19977;-78
2021/07/01 06:05:37;;;;;;;;;;;15.00;99.90;;;;;;6127257;23;20008;-77
2021/07/01 06:08:04;;;;;;;;;;;15.10;99.90;;;;;;6153776;23;19978;-78
2021/07/01 06:10:30;;;;;;;;;;;15.10;99.90;;;;;;6152452;23;19978;-77
2021/07/01 06:12:56;;;;;;;;;;;15.10;99.90;;;;;;6153509;23;19978;-77
2021/07/01 06:15:22;;;;;;;;;;;15.20;99.90;;;;;;6153683;23;20024;-77
2021/07/01 06:17:48;;;;;;;;;;;15.00;99.90;;;;;;6153182;23;19978;-77
2021/07/01 06:20:14;;;;;;;;;;;15.10;99.90;;;;;;6154301;23;19981;-77
2021/07/01 06:22:40;;;;;;;;;;;15.10;99.90;;;;;;6152171;23;19978;-77
2021/07/01 06:25:06;;;;;;;;;;;15.00;99.90;;;;;;6151342;23;20040;-77
2021/07/01 06:27:37;;;;;;;;;;;15.10;99.90;;;;;;6128292;23;20354;-77
2021/07/01 06:30:07;;;;;;;;;;;15.10;99.90;;;;;;6155862;23;19978;-77
2021/07/01 06:32:37;;;;;;;;;;;15.10;99.90;;;;;;6127953;23;19985;-77
2021/07/01 06:35:03;;;;;;;;;;;15.10;99.90;;;;;;6155441;23;19994;-77
2021/07/01 06:37:31;;;;;;;;;;;15.00;99.90;;;;;;6154895;23;20283;-77
2021/07/01 06:39:58;;;;;;;;;;;15.00;99.90;;;;;;6156943;23;20009;-78
2021/07/01 06:42:23;;;;;;;;;;;15.00;99.90;;;;;;6129940;23;20009;-78
2021/07/01 06:44:49;;;;;;;;;;;15.20;99.90;;;;;;6155200;23;19993;-77
2021/07/01 06:47:16;;;;;;;;;;;15.20;99.90;;;;;;6152172;23;20309;-77
2021/07/01 06:49:42;;;;;;;;;;;15.20;99.90;;;;;;6153076;23;20424;-78
2021/07/01 06:52:10;;;;;;;;;;;15.20;99.90;;;;;;6155028;23;19973;-77
2021/07/01 06:54:37;;;;;;;;;;;15.30;99.90;;;;;;6151929;23;20042;-77
2021/07/01 06:57:02;;;;;;;;;;;15.20;99.90;;;;;;6150763;23;20411;-76
2021/07/01 06:59:28;;;;;;;;;;;15.20;99.90;;;;;;6150832;23;20009;-77
2021/07/01 07:01:54;;;;;;;;;;;15.10;99.90;;;;;;6151688;23;20016;-77
2021/07/01 07:04:19;;;;;;;;;;;15.20;99.90;;;;;;6152584;23;20440;-76
2021/07/01 07:06:45;;;;;;;;;;;15.10;99.90;;;;;;6150363;23;20381;-76
2021/07/01 07:09:15;;;;;;;;;;;15.10;99.90;;;;;;6151003;23;19977;-77
2021/07/01 07:11:40;;;;;;;;;;;15.10;99.90;;;;;;6151050;23;20060;-77
2021/07/01 07:14:06;;;;;;;;;;;15.10;99.90;;;;;;6151302;23;20397;-76
2021/07/01 07:16:36;;;;;;;;;;;15.10;99.90;;;;;;6150891;23;19988;-77
2021/07/01 07:19:03;;;;;;;;;;;15.20;99.90;;;;;;6152778;23;20400;-77
2021/07/01 07:21:33;;;;;;;;;;;15.20;99.90;;;;;;6150614;23;20064;-77
2021/07/01 07:23:59;;;;;;;;;;;15.20;99.90;;;;;;6151638;23;19977;-77
2021/07/01 07:26:25;;;;;;;;;;;15.30;99.90;;;;;;6126091;23;20005;-77
2021/07/01 07:28:51;;;;;;;;;;;15.30;99.90;;;;;;6152522;23;19981;-77
2021/07/01 07:31:22;;;;;;;;;;;15.20;99.90;;;;;;6126784;23;19977;-77
2021/07/01 07:33:49;;;;;;;;;;;15.30;99.90;;;;;;6150810;23;19977;-76
2021/07/01 07:36:18;;;;;;;;;;;15.20;99.90;;;;;;6151169;23;19997;-77
2021/07/01 07:38:43;;;;;;;;;;;15.20;99.90;;;;;;6152389;23;19981;-77
2021/07/01 07:41:13;;;;;;;;;;;15.30;99.90;;;;;;6151098;23;20072;-77
2021/07/01 07:43:39;;;;;;;;;;;15.30;99.90;;;;;;6152317;23;20390;-76
2021/07/01 07:46:05;;;;;;;;;;;15.30;99.90;;;;;;6151327;23;20083;-75
2021/07/01 07:48:33;;;;;;;;;;;15.30;99.90;;;;;;6151483;23;20005;-75
2021/07/01 07:51:00;;;;;;;;;;;15.30;99.90;;;;;;6150131;23;20321;-76
2021/07/01 07:53:29;;;;;;;;;;;15.30;99.90;;;;;;6125413;23;20461;-76
2021/07/01 07:56:00;;;;;;;;;;;15.30;99.90;;;;;;6151394;23;20008;-75
2021/07/01 07:58:26;;;;;;;;;;;15.20;99.90;;;;;;6150134;23;19984;-75
2021/07/01 08:00:53;;;;;;;;;;;15.20;99.90;;;;;;6151595;23;20408;-75
2021/07/01 08:03:19;;;;;;;;;;;15.20;99.90;;;;;;6126289;23;20020;-75
2021/07/01 08:05:44;;;;;;;;;;;15.30;99.90;;;;;;6127091;23;20005;-75
2021/07/01 08:08:13;;;;;;;;;;;15.30;99.90;;;;;;6153233;23;19973;-75
2021/07/01 08:10:40;;;;;;;;;;;15.30;99.90;;;;;;6153286;23;19980;-75
2021/07/01 08:13:06;;;;;;;;;;;15.40;99.90;;;;;;6153248;23;19973;-75
2021/07/01 08:15:36;;;;;;;;;;;15.40;99.90;;;;;;6127070;23;20048;-75
2021/07/01 08:18:03;;;;;;;;;;;15.40;99.90;;;;;;6153241;23;19973;-76
2021/07/01 08:20:28;;;;;;;;;;;15.40;99.90;;;;;;6126800;23;20456;-75
2021/07/01 08:22:54;;;;;;;;;;;15.40;99.90;;;;;;6153129;23;20028;-75
2021/07/01 08:25:21;;;;;;;;;;;15.50;99.90;;;;;;6151260;23;20001;-75
2021/07/01 08:27:47;;;;;;;;;;;15.60;99.90;;;;;;6151702;23;20415;-75
2021/07/01 08:30:14;;;;;;;;;;;15.70;99.90;;;;;;6153057;23;20020;-76
2021/07/01 08:32:40;;;;;;;;;;;15.80;99.90;;;;;;6153011;23;19974;-76
2021/07/01 08:35:06;;;;;;;;;;;16.00;99.90;;;;;;6152909;23;20375;-76
2021/07/01 08:37:33;;;;;;;;;;;16.10;99.90;;;;;;6152934;23;19974;-76
2021/07/01 08:39:59;;;;;;;;;;;16.20;99.90;;;;;;6152882;23;20305;-75
2021/07/01 08:42:30;;;;;;;;;;;16.20;99.90;;;;;;6151384;23;19978;-75
2021/07/01 08:45:00;;;;;;;;;;;16.30;99.90;;;;;;6151304;23;20052;-76
2021/07/01 08:47:32;;;;;;;;;;;16.30;99.90;;;;;;6151411;23;20009;-76
2021/07/01 08:49:59;;;;;;;;;;;16.30;99.90;;;;;;6126747;23;19993;-76
2021/07/01 08:52:25;;;;;;;;;;;16.20;99.90;;;;;;6151337;23;19982;-75
2021/07/01 08:54:55;;;;;;;;;;;16.20;99.90;;;;;;6126456;23;20020;-76
2021/07/01 08:57:25;;;;;;;;;;;16.20;99.90;;;;;;6152824;23;20365;-76
2021/07/01 08:59:54;;;;;;;;;;;16.40;99.90;;;;;;6126460;23;20028;-76
2021/07/01 09:02:26;;;;;;;;;;;16.60;99.90;;;;;;6151219;23;19985;-76
2021/07/01 09:04:55;;;;;;;;;;;16.80;99.90;;;;;;6126858;23;19993;-76
2021/07/01 09:07:23;;;;;;;;;;;16.90;99.90;;;;;;6151034;23;19977;-76
2021/07/01 09:09:52;;;;;;;;;;;16.90;99.90;;;;;;6152514;23;19980;-76
2021/07/01 09:12:21;;;;;;;;;;;17.00;99.90;;;;;;6152595;23;19980;-76
2021/07/01 09:14:49;;;;;;;;;;;16.80;99.90;;;;;;6152227;23;19993;-76
2021/07/01 09:17:15;;;;;;;;;;;16.80;99.90;;;;;;6152526;23;19974;-76
2021/07/01 09:19:40;;;;;;;;;;;16.70;99.90;;;;;;6152468;23;20008;-75
2021/07/01 09:22:11;;;;;;;;;;;16.50;99.90;;;;;;6152432;23;20052;-76
2021/07/01 09:24:37;;;;;;;;;;;16.60;99.90;;;;;;6151335;23;20045;-76
2021/07/01 09:27:07;;;;;;;;;;;16.60;99.90;;;;;;6152357;23;20076;-76
2021/07/01 09:29:32;;;;;;;;;;;16.70;99.90;;;;;;6152408;23;19980;-76
2021/07/01 09:31:59;;;;;;;;;;;16.80;99.90;;;;;;6150885;23;19978;-76
2021/07/01 09:34:25;;;;;;;;;;;16.90;99.90;;;;;;6150781;23;20025;-75
2021/07/01 09:36:51;;;;;;;;;;;17.00;99.90;;;;;;6150730;23;20350;-76
2021/07/01 09:39:21;;;;;;;;;;;17.20;99.90;;;;;;6150854;23;19978;-75
2021/07/01 09:41:47;;;;;;;;;;;17.30;99.90;;;;;;6126029;23;19978;-76
2021/07/01 09:44:16;;;;;;;;;;;17.30;99.90;;;;;;6150724;23;20001;-76
2021/07/01 09:46:45;;;;;;;;;;;17.10;99.90;;;;;;6150713;23;20076;-77
2021/07/01 09:49:14;;;;;;;;;;;17.00;99.90;;;;;;6152719;23;20008;-76
2021/07/01 09:51:40;;;;;;;;;;;17.00;99.90;;;;;;6150663;23;19978;-74
2021/07/01 09:54:06;;;;;;;;;;;16.80;99.90;;;;;;6125977;23;19993;-75
2021/07/01 09:56:37;;;;;;;;;;;16.70;99.90;;;;;;6150667;23;20401;-74
2021/07/01 09:59:03;;;;;;;;;;;16.60;99.90;;;;;;6150700;23;19985;-74
2021/07/01 10:01:32;;;;;;;;;;;16.80;99.90;;;;;;6157989;23;20352;-75
2021/07/01 10:03:58;;;;;;;;;;;17.00;99.90;;;;;;6158311;23;19988;-75
2021/07/01 10:06:24;;;;;;;;;;;17.60;99.90;;;;;;6156603;23;20395;-78
2021/07/01 10:08:49;;;;;;;;;;;17.90;99.90;;;;;;6127222;23;20013;-78
2021/07/01 10:11:15;;;;;;;;;;;18.20;99.90;;;;;;6127215;23;19985;-79
2021/07/01 10:13:51;;;;;;;;;;;18.60;99.90;;;;;;6153694;23;20009;-78
2021/07/01 10:16:20;;;;;;;;;;;18.90;99.90;;;;;;6152869;23;19989;-78
2021/07/01 10:18:46;;;;;;;;;;;19.10;99.90;;;;;;6151165;23;19990;-78
2021/07/01 10:21:12;;;;;;;;;;;18.90;99.90;;;;;;6151135;23;19982;-76
2021/07/01 10:23:38;;;;;;;;;;;18.70;99.90;;;;;;6152469;23;19973;-76
2021/07/01 10:26:16;;;;;;;;;;;18.10;99.90;;;;;;6151864;23;20008;-77
2021/07/01 10:28:55;;;;;;;;;;;17.40;99.90;;;;;;6150845;23;20002;-77
2021/07/01 10:31:21;;;;;;;;;;;16.70;99.90;;;;;;6151994;23;20353;-77
2021/07/01 10:33:46;;;;;;;;;;;16.40;99.90;;;;;;6151708;23;19977;-76
2021/07/01 10:36:21;;;;;;;;;;;16.10;99.90;;;;;;6151596;23;20008;-76
2021/07/01 10:38:48;;;;;;;;;;;16.00;99.90;;;;;;6151843;23;20048;-77
2021/07/01 10:41:25;;;;;;;;;;;16.00;99.90;;;;;;6150713;23;20086;-77
2021/07/01 10:43:50;;;;;;;;;;;16.10;99.90;;;;;;6152981;23;19973;-77
2021/07/01 10:46:16;;;;;;;;;;;16.40;99.90;;;;;;6153387;23;20008;-77
2021/07/01 10:48:42;;;;;;;;;;;17.20;99.90;;;;;;6153057;23;19977;-77
2021/07/01 10:51:10;;;;;;;;;;;18.40;99.90;;;;;;6152113;23;20028;-78
2021/07/01 10:53:38;;;;;;;;;;;18.90;99.90;;;;;;6158919;23;19993;-77
2021/07/01 10:56:09;;;;;;;;;;;19.30;99.90;;;;;;6158480;23;20043;-77
2021/07/01 10:58:35;;;;;;;;;;;19.40;99.90;;;;;;6160681;23;19974;-78
2021/07/01 11:01:01;;;;;;;;;;;19.70;99.90;;;;;;6161387;23;20024;-78
2021/07/01 11:03:28;;;;;;;;;;;20.30;99.90;;;;;;6155635;23;19977;-78
2021/07/01 11:05:54;;;;;;;;;;;20.80;99.90;;;;;;6159140;23;20028;-78
2021/07/01 11:08:23;;;;;;;;;;;21.00;99.90;;;;;;6157054;23;20382;-78
2021/07/01 11:10:48;;;;;;;;;;;21.20;99.90;;;;;;6128456;23;19977;-78
2021/07/01 11:13:14;;;;;;;;;;;21.20;99.90;;;;;;6129015;23;20324;-78
2021/07/01 11:15:58;;;;;;;;;;;21.30;99.90;;;;;;6154834;23;20029;-78
2021/07/01 11:18:37;;;;;;;;;;;21.60;98.90;;;;;;6128505;23;20027;-78
2021/07/01 11:21:07;;;;;;;;;;;22.10;96.20;;;;;;6153379;23;20004;-78
2021/07/01 11:23:32;;;;;;;;;;;22.50;95.50;;;;;;6156351;23;19974;-78
2021/07/01 11:25:58;;;;;;;;;;;22.10;93.40;;;;;;6156513;23;20020;-79
2021/07/01 11:28:29;;;;;;;;;;;21.60;93.70;;;;;;6126889;23;20031;-78
2021/07/01 11:31:02;;;;;;;;;;;21.00;94.80;;;;;;6152574;23;20309;-78
2021/07/01 11:33:28;;;;;;;;;;;20.40;95.00;;;;;;6151431;23;19977;-79
2021/07/01 11:36:12;;;;;;;;;;;20.20;96.60;;;;;;6153243;23;20036;-78
2021/07/01 11:38:38;;;;;;;;;;;20.00;97.90;;;;;;6127872;23;19977;-78
2021/07/01 11:41:04;;;;;;;;;;;19.90;98.00;;;;;;6128494;23;20416;-78
2021/07/01 11:43:30;;;;;;;;;;;19.90;97.60;;;;;;6154293;23;19973;-78
2021/07/01 11:45:56;;;;;;;;;;;20.10;96.40;;;;;;6153593;23;20005;-78
2021/07/01 11:48:22;;;;;;;;;;;20.00;97.70;;;;;;6154754;23;20028;-79
2021/07/01 11:50:49;;;;;;;;;;;19.70;97.40;;;;;;6152816;23;19981;-78
2021/07/01 11:53:15;;;;;;;;;;;19.20;97.70;;;;;;6152389;23;20389;-77
2021/07/01 11:55:40;;;;;;;;;;;18.80;99.00;;;;;;6152526;23;20483;-77
2021/07/01 11:58:06;;;;;;;;;;;18.70;99.90;;;;;;6152842;23;19981;-77
2021/07/01 12:00:32;;;;;;;;;;;18.60;99.90;;;;;;6154247;23;20035;-79
2021/07/01 12:02:58;;;;;;;;;;;18.40;99.90;;;;;;6153587;23;20408;-77
2021/07/01 12:05:24;;;;;;;;;;;18.20;99.90;;;;;;6126821;23;20043;-76
2021/07/01 12:07:50;;;;;;;;;;;18.10;99.90;;;;;;6151434;23;20071;-77
2021/07/01 12:10:19;;;;;;;;;;;18.20;99.90;;;;;;6152663;23;20405;-77
2021/07/01 12:12:45;;;;;;;;;;;18.60;99.90;;;;;;6154456;23;20056;-77
2021/07/01 12:15:11;;;;;;;;;;;18.90;99.90;;;;;;6154075;23;19974;-78
2021/07/01 12:17:52;;;;;;;;;;;20.10;99.90;;;;;;6152625;23;20306;-78
2021/07/01 12:20:31;;;;;;;;;;;21.70;97.40;;;;;;6153882;23;20409;-78
2021/07/01 12:22:57;;;;;;;;;;;22.40;94.30;;;;;;6127847;23;19977;-78
2021/07/01 12:25:25;;;;;;;;;;;23.10;91.10;;;;;;6153816;23;19998;-78
2021/07/01 12:28:06;;;;;;;;;;;23.70;86.90;;;;;;6154281;23;19974;-77
2021/07/01 12:30:51;;;;;;;;;;;23.70;84.60;;;;;;6153367;23;19981;-77
2021/07/01 12:33:35;;;;;;;;;;;23.70;83.80;;;;;;6154487;23;19974;-78
2021/07/01 12:36:19;;;;;;;;;;;23.80;82.40;;;;;;6127861;23;19997;-78
2021/07/01 12:39:03;;;;;;;;;;;24.30;77.40;;;;;;6154460;23;20500;-79
2021/07/01 12:41:29;;;;;;;;;;;24.60;76.30;;;;;;6128158;23;19978;-78
2021/07/01 12:43:55;;;;;;;;;;;24.70;77.60;;;;;;6154229;23;19993;-78
2021/07/01 12:46:39;;;;;;;;;;;24.10;73.60;;;;;;6127133;23;20080;-78
2021/07/01 12:49:05;;;;;;;;;;;23.50;77.90;;;;;;6153283;23;19980;-78
2021/07/01 12:51:40;;;;;;;;;;;23.10;80.80;;;;;;6153503;23;19973;-78
2021/07/01 12:54:13;;;;;;;;;;;22.60;82.80;;;;;;6153736;23;19983;-78
2021/07/01 12:56:38;;;;;;;;;;;22.30;84.20;;;;;;6152711;23;20072;-78
2021/07/01 12:59:04;;;;;;;;;;;22.00;84.00;;;;;;6153248;23;19984;-78
2021/07/01 13:01:29;;;;;;;;;;;21.60;83.20;;;;;;6152944;23;19982;-78
2021/07/01 13:03:55;;;;;;;;;;;21.40;84.40;;;;;;6152318;23;19982;-78
2021/07/01 13:06:21;;;;;;;;;;;21.10;86.10;;;;;;6132452;23;20013;-77
2021/07/01 13:08:47;;;;;;;;;;;20.80;88.70;;;;;;6156102;23;19977;-77
2021/07/01 13:11:13;;;;;;;;;;;20.50;87.20;;;;;;6156625;23;20408;-77
2021/07/01 13:13:38;;;;;;;;;;;20.00;91.30;;;;;;6158285;23;19978;-76
2021/07/01 13:16:04;;;;;;;;;;;19.50;94.20;;;;;;6128817;23;20368;-76
2021/07/01 13:18:30;;;;;;;;;;;19.20;95.50;;;;;;6153229;23;20060;-77
2021/07/01 13:21:08;;;;;;;;;;;19.20;94.30;;;;;;6152733;23;20321;-76
2021/07/01 13:23:33;;;;;;;;;;;19.50;94.90;;;;;;6153809;23;19978;-77
2021/07/01 13:25:59;;;;;;;;;;;19.80;94.40;;;;;;6127730;23;20109;-77
2021/07/01 13:28:26;;;;;;;;;;;20.00;94.00;;;;;;6153986;23;19974;-77
2021/07/01 13:30:52;;;;;;;;;;;20.20;92.50;;;;;;6151594;23;20471;-77
2021/07/01 13:33:18;;;;;;;;;;;20.90;91.70;;;;;;6152864;23;20035;-77
2021/07/01 13:35:48;;;;;;;;;;;22.00;88.40;;;;;;6151979;23;19993;-77
2021/07/01 13:38:20;;;;;;;;;;;22.70;82.60;;;;;;6153109;23;19973;-78
2021/07/01 13:40:46;;;;;;;;;;;23.00;79.10;;;;;;6153279;23;19994;-78
2021/07/01 13:43:12;;;;;;;;;;;23.00;81.30;;;;;;6127038;23;20352;-78
2021/07/01 13:45:39;;;;;;;;;;;22.70;76.80;;;;;;6126860;23;19997;-79
2021/07/01 13:48:05;;;;;;;;;;;22.40;78.70;;;;;;6152128;23;20005;-78
2021/07/01 13:50:32;;;;;;;;;;;21.90;79.00;;;;;;6153984;23;20024;-79
2021/07/01 13:52:59;;;;;;;;;;;21.50;81.00;;;;;;6153817;23;19974;-79
2021/07/01 13:55:24;;;;;;;;;;;20.90;82.20;;;;;;6155336;23;19996;-79
2021/07/01 13:57:50;;;;;;;;;;;20.80;84.40;;;;;;6128055;23;19981;-79
2021/07/01 14:00:23;;;;;;;;;;;20.70;86.30;;;;;;6153580;23;20067;-79
2021/07/01 14:02:48;;;;;;;;;;;20.60;88.10;;;;;;6152757;23;20419;-79
2021/07/01 14:05:24;;;;;;;;;;;20.50;88.80;;;;;;6152566;23;20088;-79
2021/07/01 14:07:49;;;;;;;;;;;20.20;86.90;;;;;;6154150;23;20468;-78
2021/07/01 14:10:15;;;;;;;;;;;20.10;88.90;;;;;;6152611;23;19977;-80
2021/07/01 14:12:41;;;;;;;;;;;19.90;89.60;;;;;;6155804;23;19974;-79
2021/07/01 14:15:09;;;;;;;;;;;19.60;88.00;;;;;;6154748;23;20345;-79